createdAt,value
2019-04-22T00:00:01.040Z,11.10
2019-04-22T00:03:03.618Z,11.10
2019-04-22T00:05:56.170Z,11.10
2019-04-22T00:08:29.546Z,11.10
2019-04-22T00:11:07.932Z,11.10
2019-04-22T00:13:40.183Z,11.00
2019-04-22T00:15:59.322Z,11.00
2019-04-22T00:18:46.837Z,11.00
2019-04-22T00:21:04.701Z,10.90
2019-04-22T00:23:39.204Z,10.90
2019-04-22T00:26:10.945Z,10.90
2019-04-22T00:28:43.764Z,10.80
2019-04-22T00:31:23.599Z,10.80
2019-04-22T00:33:57.696Z,10.90
2019-04-22T00:36:27.588Z,10.90
2019-04-22T00:38:58.447Z,10.90
2019-04-22T00:42:09.938Z,10.90
2019-04-22T00:44:46.679Z,10.90
2019-04-22T00:47:17.957Z,10.90
2019-04-22T00:52:16.710Z,10.90
2019-04-22T00:54:55.882Z,10.80
2019-04-22T00:57:21.815Z,10.70
2019-04-22T00:59:55.069Z,10.70
2019-04-22T01:02:27.744Z,10.70
2019-04-22T01:05:00.901Z,10.60
2019-04-22T01:07:30.809Z,10.60
2019-04-22T01:10:19.060Z,10.70
2019-04-22T01:13:04.795Z,10.70
2019-04-22T01:15:40.514Z,10.70
2019-04-22T01:18:09.319Z,10.70
2019-04-22T01:21:05.836Z,10.70
2019-04-22T01:23:19.253Z,10.70
2019-04-22T01:25:57.090Z,10.70
2019-04-22T01:28:23.814Z,10.60
2019-04-22T01:30:50.992Z,10.60
2019-04-22T01:33:21.544Z,10.50
2019-04-22T01:36:08.041Z,10.50
2019-04-22T01:38:45.379Z,10.50
2019-04-22T01:41:30.343Z,10.50
2019-04-22T01:44:00.304Z,10.50
2019-04-22T01:46:25.771Z,10.40
2019-04-22T01:48:47.717Z,10.40
2019-04-22T01:51:12.237Z,10.40
2019-04-22T01:53:51.347Z,10.40
2019-04-22T01:56:21.715Z,10.30
2019-04-22T01:58:44.328Z,10.40
2019-04-22T02:01:37.716Z,10.30
2019-04-22T02:04:00.913Z,10.30
2019-04-22T02:06:35.219Z,10.30
2019-04-22T02:09:09.457Z,10.30
2019-04-22T02:11:38.913Z,10.20
2019-04-22T02:14:04.673Z,10.10
2019-04-22T02:16:34.259Z,10.10
2019-04-22T02:19:11.640Z,10.00
2019-04-22T02:21:38.649Z,10.00
2019-04-22T02:24:05.285Z,9.90
2019-04-22T02:29:11.033Z,9.90
2019-04-22T02:31:48.962Z,9.80
2019-04-22T02:34:22.633Z,9.80
2019-04-22T02:37:10.614Z,9.80
2019-04-22T02:39:19.879Z,9.70
2019-04-22T02:41:56.797Z,9.70
2019-04-22T02:44:33.329Z,9.60
2019-04-22T02:47:11.935Z,9.50
2019-04-22T02:57:35.271Z,9.40
2019-04-22T02:59:58.382Z,9.30
2019-04-22T03:02:46.079Z,9.20
2019-04-22T03:05:07.529Z,9.20
2019-04-22T03:07:26.000Z,9.00
2019-04-22T03:09:59.442Z,9.00
2019-04-22T03:12:23.739Z,8.90
2019-04-22T03:14:56.307Z,8.80
2019-04-22T03:17:28.676Z,8.70
2019-04-22T03:20:41.990Z,8.80
2019-04-22T03:23:05.593Z,8.70
2019-04-22T03:25:51.548Z,8.60
2019-04-22T03:28:19.227Z,8.50
2019-04-22T03:31:03.525Z,8.50
2019-04-22T03:38:35.562Z,8.60
2019-04-22T03:41:01.339Z,8.60
2019-04-22T03:43:27.412Z,8.70
2019-04-22T03:46:03.833Z,8.80
2019-04-22T03:48:45.366Z,8.80
2019-04-22T03:51:18.304Z,8.70
2019-04-22T03:53:38.289Z,8.60
2019-04-22T03:56:18.494Z,8.60
2019-04-22T03:58:37.268Z,8.50
2019-04-22T04:01:18.735Z,8.50
2019-04-22T04:03:39.579Z,8.50
2019-04-22T04:06:05.375Z,8.60
2019-04-22T04:08:48.128Z,8.70
2019-04-22T04:11:16.396Z,8.80
2019-04-22T04:13:57.967Z,8.80
2019-04-22T04:16:12.538Z,8.80
2019-04-22T04:18:56.185Z,8.80
2019-04-22T04:21:26.708Z,8.80
2019-04-22T04:24:01.139Z,8.80
2019-04-22T04:26:26.719Z,8.80
2019-04-22T04:31:25.524Z,8.70
2019-04-22T04:33:48.354Z,8.70
2019-04-22T04:36:27.079Z,8.60
2019-04-22T04:41:26.800Z,8.60
2019-04-22T04:44:59.267Z,8.60
2019-04-22T04:49:34.674Z,8.60
2019-04-22T04:54:35.938Z,8.60
2019-04-22T04:57:07.241Z,8.80
2019-04-22T04:59:59.247Z,8.80
2019-04-22T05:02:10.388Z,8.90
2019-04-22T05:04:51.090Z,9.00
2019-04-22T05:07:18.764Z,9.10
2019-04-22T05:12:33.869Z,9.40
2019-04-22T05:14:36.851Z,9.60
2019-04-22T05:17:15.781Z,9.80
2019-04-22T05:20:05.259Z,9.90
2019-04-22T05:22:28.360Z,10.00
2019-04-22T05:24:59.806Z,10.20
2019-04-22T05:30:23.457Z,11.40
2019-04-22T05:32:38.530Z,12.30
2019-04-22T05:35:06.898Z,13.50
2019-04-22T05:37:43.253Z,14.30
2019-04-22T05:42:46.267Z,16.00
2019-04-22T05:45:41.167Z,16.50
2019-04-22T05:48:18.742Z,17.20
2019-04-22T05:51:01.036Z,17.70
2019-04-22T05:53:40.569Z,17.90
2019-04-22T05:58:58.625Z,18.90
2019-04-22T06:02:01.181Z,19.50
2019-04-22T06:04:51.794Z,20.00
2019-04-22T06:07:47.230Z,19.90
2019-04-22T06:16:30.829Z,21.20
2019-04-22T06:19:03.239Z,20.90
2019-04-22T06:21:35.600Z,21.10
2019-04-22T06:29:22.202Z,20.50
2019-04-22T06:32:11.807Z,20.20
2019-04-22T06:34:22.302Z,20.90
2019-04-22T06:36:53.943Z,21.00
2019-04-22T06:39:28.225Z,21.00
2019-04-22T06:42:06.820Z,20.90
2019-04-22T06:47:25.138Z,20.10
2019-04-22T06:58:29.045Z,19.70
2019-04-22T07:01:18.219Z,19.60
2019-04-22T07:03:56.945Z,19.50
2019-04-22T07:06:48.139Z,19.50
2019-04-22T07:12:26.057Z,19.50
2019-04-22T07:18:24.699Z,19.90
2019-04-22T07:21:01.391Z,19.90
2019-04-22T07:24:02.742Z,19.90
2019-04-22T07:27:08.445Z,20.00
2019-04-22T07:29:44.719Z,20.10
2019-04-22T07:32:53.611Z,19.60
2019-04-22T07:35:08.453Z,19.60
2019-04-22T07:40:38.922Z,19.60
2019-04-22T07:44:07.625Z,19.60
2019-04-22T07:52:52.161Z,20.10
2019-04-22T07:55:38.115Z,20.10
2019-04-22T07:58:43.539Z,19.90
2019-04-22T08:01:20.343Z,19.70
2019-04-22T08:04:53.763Z,19.80
2019-04-22T08:07:50.555Z,20.00
2019-04-22T08:10:16.689Z,20.00
2019-04-22T08:13:14.605Z,20.10
2019-04-22T08:16:38.586Z,20.00
2019-04-22T08:22:47.884Z,19.80
2019-04-22T08:25:31.531Z,20.00
2019-04-22T08:28:17.470Z,19.80
2019-04-22T08:31:26.300Z,19.90
2019-04-22T08:35:18.664Z,19.80
2019-04-22T08:40:56.132Z,20.10
2019-04-22T08:47:59.190Z,19.70
2019-04-22T08:50:39.815Z,19.70
2019-04-22T08:53:33.751Z,19.60
2019-04-22T08:56:25.470Z,19.80
2019-04-22T09:00:21.517Z,20.10
2019-04-22T09:02:49.566Z,20.10
2019-04-22T09:08:34.389Z,20.00
2019-04-22T09:14:37.818Z,20.20
2019-04-22T09:17:58.158Z,20.40
2019-04-22T09:24:06.868Z,20.40
2019-04-22T09:27:10.114Z,20.20
2019-04-22T09:29:58.484Z,20.10
2019-04-22T09:33:43.107Z,20.10
2019-04-22T09:47:19.199Z,20.40
2019-04-22T09:50:22.349Z,20.70
2019-04-22T09:53:08.400Z,20.80
2019-04-22T09:55:57.100Z,20.80
2019-04-22T09:58:57.015Z,21.00
2019-04-22T10:01:47.348Z,20.80
2019-04-22T10:04:27.625Z,20.90
2019-04-22T10:07:13.469Z,21.10
2019-04-22T10:12:19.353Z,21.20
2019-04-22T10:14:49.243Z,21.50
2019-04-22T10:17:32.157Z,22.00
2019-04-22T10:20:10.520Z,21.80
2019-04-22T10:23:20.212Z,21.60
2019-04-22T10:26:00.813Z,21.60
2019-04-22T10:28:39.701Z,21.70
2019-04-22T10:31:31.104Z,21.90
2019-04-22T10:37:18.410Z,21.70
2019-04-22T10:40:23.638Z,21.90
2019-04-22T10:43:48.533Z,21.60
2019-04-22T10:47:25.676Z,22.00
2019-04-22T10:50:06.730Z,22.10
2019-04-22T10:59:36.568Z,21.80
2019-04-22T11:08:50.216Z,21.90
2019-04-22T11:15:46.849Z,21.80
2019-04-22T11:22:07.737Z,21.70
2019-04-22T11:26:06.011Z,21.80
2019-04-22T11:29:19.545Z,22.00
2019-04-22T11:33:24.409Z,21.60
2019-04-22T11:40:04.650Z,22.00
2019-04-22T11:42:34.344Z,21.90
2019-04-22T11:46:01.213Z,22.10
2019-04-22T11:49:05.712Z,22.50
2019-04-22T11:51:56.862Z,22.50
2019-04-22T11:55:02.268Z,22.40
2019-04-22T11:58:21.932Z,22.30
2019-04-22T12:01:14.877Z,22.30
2019-04-22T12:03:55.883Z,22.10
2019-04-22T12:07:08.798Z,22.30
2019-04-22T12:10:18.964Z,22.20
2019-04-22T12:13:28.186Z,22.20
2019-04-22T12:16:27.382Z,22.20
2019-04-22T12:19:29.410Z,22.00
2019-04-22T12:22:13.256Z,22.00
2019-04-22T12:25:46.167Z,22.20
2019-04-22T12:32:11.653Z,22.10
2019-04-22T12:35:28.368Z,22.10
2019-04-22T12:38:24.312Z,22.30
2019-04-22T12:41:10.401Z,22.40
2019-04-22T12:46:48.065Z,22.40
2019-04-22T12:50:08.798Z,22.50
2019-04-22T12:56:37.598Z,22.20
2019-04-22T12:59:14.048Z,22.80
2019-04-22T13:01:58.614Z,22.50
2019-04-22T13:05:20.068Z,22.30
2019-04-22T13:11:14.476Z,22.20
2019-04-22T13:14:28.829Z,22.40
2019-04-22T13:17:46.254Z,22.30
2019-04-22T13:20:50.595Z,22.50
2019-04-22T13:24:07.077Z,22.30
2019-04-22T13:33:59.748Z,22.00
2019-04-22T13:37:34.927Z,22.00
2019-04-22T13:40:40.481Z,22.30
2019-04-22T13:48:38.422Z,22.60
2019-04-22T13:52:02.247Z,22.60
2019-04-22T13:58:04.129Z,22.30
2019-04-22T14:00:42.250Z,22.50
2019-04-22T14:03:35.310Z,22.40
2019-04-22T14:06:18.692Z,22.30
2019-04-22T14:12:15.441Z,22.60
2019-04-22T14:15:20.452Z,22.40
2019-04-22T14:18:16.903Z,22.30
2019-04-22T14:21:36.676Z,22.30
2019-04-22T14:24:38.665Z,22.30
2019-04-22T14:27:30.565Z,22.40
2019-04-22T14:30:04.680Z,22.40
2019-04-22T14:41:51.480Z,22.40
2019-04-22T14:45:13.415Z,22.20
2019-04-22T14:48:41.629Z,22.10
2019-04-22T14:51:46.420Z,21.90
2019-04-22T14:55:10.159Z,21.90
2019-04-22T14:57:59.141Z,22.00
2019-04-22T15:07:44.763Z,21.70
2019-04-22T15:10:58.107Z,21.70
2019-04-22T15:15:11.298Z,21.60
2019-04-22T15:17:20.775Z,21.80
2019-04-22T15:24:06.761Z,21.50
2019-04-22T15:36:13.991Z,21.30
2019-04-22T15:37:46.108Z,21.50
2019-04-22T15:41:12.785Z,21.40
2019-04-22T15:51:30.808Z,21.50
2019-04-22T15:58:48.023Z,21.10
2019-04-22T16:01:41.044Z,21.20
2019-04-22T16:04:34.696Z,20.90
2019-04-22T16:19:04.466Z,20.90
2019-04-22T16:22:03.061Z,20.80
2019-04-22T16:25:45.266Z,20.70
2019-04-22T16:28:33.458Z,20.40
2019-04-22T16:31:21.805Z,20.30
2019-04-22T16:34:04.632Z,20.40
2019-04-22T16:37:07.178Z,20.30
2019-04-22T16:40:18.610Z,20.20
2019-04-22T16:43:17.212Z,20.10
2019-04-22T16:45:59.408Z,20.10
2019-04-22T16:48:40.020Z,19.90
2019-04-22T16:51:16.223Z,19.90
2019-04-22T16:53:58.119Z,19.80
2019-04-22T16:56:48.079Z,19.90
2019-04-22T16:59:48.951Z,19.80
2019-04-22T17:02:43.381Z,19.80
2019-04-22T17:06:13.820Z,19.80
2019-04-22T17:08:51.000Z,19.60
2019-04-22T17:11:43.589Z,19.60
2019-04-22T17:15:03.875Z,19.60
2019-04-22T17:18:07.492Z,19.50
2019-04-22T17:21:08.521Z,19.60
2019-04-22T17:23:59.286Z,19.50
2019-04-22T17:26:46.420Z,19.30
2019-04-22T17:29:32.691Z,19.20
2019-04-22T17:32:54.573Z,19.10
2019-04-22T17:35:48.509Z,19.00
2019-04-22T17:38:44.029Z,19.00
2019-04-22T17:42:22.427Z,18.90
2019-04-22T17:46:32.274Z,18.70
2019-04-22T17:49:10.473Z,18.50
2019-04-22T17:51:55.068Z,18.40
2019-04-22T17:54:07.327Z,18.30
2019-04-22T17:56:48.639Z,18.30
2019-04-22T17:59:39.235Z,18.30
2019-04-22T18:02:06.455Z,18.20
2019-04-22T18:08:25.172Z,18.00
2019-04-22T18:11:07.917Z,17.90
2019-04-22T18:14:11.599Z,17.80
2019-04-22T18:19:51.813Z,17.60
2019-04-22T18:22:21.780Z,17.50
2019-04-22T18:28:15.098Z,17.40
2019-04-22T18:30:35.275Z,17.20
2019-04-22T18:34:09.784Z,17.10
2019-04-22T18:36:19.758Z,17.10
2019-04-22T18:39:04.615Z,17.10
2019-04-22T18:41:34.193Z,17.00
2019-04-22T18:44:08.322Z,16.90
2019-04-22T18:46:37.125Z,16.90
2019-04-22T18:49:11.315Z,16.80
2019-04-22T18:52:04.558Z,16.80
2019-04-22T18:54:45.701Z,16.70
2019-04-22T18:58:18.778Z,16.70
2019-04-22T19:01:01.875Z,16.60
2019-04-22T19:03:56.155Z,16.50
2019-04-22T19:10:53.543Z,16.30
2019-04-22T19:16:00.544Z,16.20
2019-04-22T19:18:31.867Z,16.10
2019-04-22T19:21:13.082Z,16.10
2019-04-22T19:23:51.998Z,16.00
2019-04-22T19:29:31.607Z,16.00
2019-04-22T19:33:46.246Z,15.90
2019-04-22T19:34:42.860Z,15.90
2019-04-22T19:51:24.312Z,15.60
2019-04-22T20:07:52.413Z,15.40
2019-04-22T20:10:51.085Z,15.40
2019-04-22T20:13:51.448Z,15.30
2019-04-22T20:16:10.088Z,15.30
2019-04-22T20:19:06.596Z,15.20
2019-04-22T20:21:35.141Z,15.20
2019-04-22T20:24:06.977Z,15.10
2019-04-22T20:29:58.055Z,15.10
2019-04-22T20:32:32.683Z,15.00
2019-04-22T20:35:07.431Z,15.00
2019-04-22T20:38:19.973Z,14.90
2019-04-22T20:40:54.987Z,14.90
2019-04-22T20:44:51.595Z,14.80
2019-04-22T20:47:26.533Z,14.70
2019-04-22T20:50:08.004Z,14.60
2019-04-22T20:52:50.246Z,14.50
2019-04-22T20:55:13.654Z,14.50
2019-04-22T20:58:18.018Z,14.40
2019-04-22T21:00:40.293Z,14.40
2019-04-22T21:03:07.294Z,14.30
2019-04-22T21:05:48.156Z,14.20
2019-04-22T21:08:30.465Z,14.10
2019-04-22T21:10:55.355Z,14.10
2019-04-22T21:13:26.117Z,14.10
2019-04-22T21:16:08.976Z,14.00
2019-04-22T21:18:51.624Z,14.00
2019-04-22T21:21:33.383Z,13.90
2019-04-22T21:23:58.352Z,13.90
2019-04-22T21:26:39.988Z,13.80
2019-04-22T21:29:12.982Z,13.80
2019-04-22T21:31:48.256Z,13.80
2019-04-22T21:34:55.465Z,13.70
2019-04-22T21:37:20.836Z,13.70
2019-04-22T21:39:47.949Z,13.70
2019-04-22T21:42:19.621Z,13.70
2019-04-22T21:44:47.780Z,13.60
2019-04-22T21:47:30.155Z,13.60
2019-04-22T21:50:18.315Z,13.60
2019-04-22T21:52:32.204Z,13.50
2019-04-22T21:55:13.115Z,13.50
2019-04-22T21:58:05.178Z,13.50
2019-04-22T22:03:10.405Z,13.40
2019-04-22T22:05:34.205Z,13.30
2019-04-22T22:08:33.705Z,13.30
2019-04-22T22:10:58.460Z,13.30
2019-04-22T22:13:31.640Z,13.20
2019-04-22T22:15:59.554Z,13.20
2019-04-22T22:18:27.613Z,13.20
2019-04-22T22:21:25.470Z,13.20
2019-04-22T22:23:39.461Z,13.20
2019-04-22T22:26:02.324Z,13.20
2019-04-22T22:31:22.217Z,13.20
2019-04-22T22:33:48.242Z,13.10
2019-04-22T22:36:34.057Z,13.10
2019-04-22T22:39:07.657Z,13.10
2019-04-22T22:41:30.139Z,13.00
2019-04-22T22:44:15.689Z,13.10
2019-04-22T22:47:09.701Z,13.10
2019-04-22T22:49:56.566Z,13.00
2019-04-22T22:53:17.084Z,12.90
2019-04-22T22:55:49.566Z,12.90
2019-04-22T22:58:16.392Z,12.80
2019-04-22T23:00:47.588Z,12.80
2019-04-22T23:03:40.576Z,12.80
2019-04-22T23:06:00.578Z,12.70
2019-04-22T23:08:26.487Z,12.70
2019-04-22T23:11:05.294Z,12.60
2019-04-22T23:13:33.498Z,12.60
2019-04-22T23:15:57.250Z,12.60
2019-04-22T23:18:12.157Z,12.60
2019-04-22T23:20:45.603Z,12.50
2019-04-22T23:23:35.607Z,12.40
2019-04-22T23:26:38.856Z,12.40
2019-04-22T23:29:18.373Z,12.40
2019-04-22T23:31:44.275Z,12.40
2019-04-22T23:34:26.549Z,12.40
2019-04-22T23:37:12.245Z,12.40
2019-04-22T23:39:53.383Z,12.40
2019-04-22T23:42:21.885Z,12.40
2019-04-22T23:44:50.195Z,12.40
2019-04-22T23:47:47.324Z,12.30
2019-04-22T23:50:32.253Z,12.30
2019-04-22T23:53:58.076Z,12.30
2019-04-22T23:56:17.203Z,12.20
